Latest Weather Observations for Blackwater Airport

IDQ60801

Issued at 9:35 pm EST Saturday 20 September 2014 (issued every 30 minutes, with the page automatically refreshed every 10 minutes)

About weather observations | Map of weather stations | Latest weather observations for QLD | Other Formats
Station Details ID: 035134 Name: BLACKWATER AIRPORT Lat: -23.60 Lon: 148.81 Height: 192.95 m
Data from the previous 72 hours. | See also: Recent months at Blackwater Airport
Date/Time
EST
Temp
°C
App
Temp
°C
Dew
Point
Rel
Hum
%
Delta-T
°C
Wind Press
QNH
hPa
Press
MSL
hPa
Rain
since 9 am
mm
Dir
 
Spd
km/h
Gust
km/h
Spd
kts
Gust
kts
20/09:30pm 20.7 17.6 11.6 56 5.1 NE 19 28 10 15 1019.7 1019.0 0.0
20/09:00pm 21.4 18.1 11.7 54 5.4 NE 20 30 11 16 1019.3 1018.7 0.0
20/08:30pm 22.0 18.6 11.4 51 6.0 NE 20 30 11 16 1018.6 1017.9 0.0
20/08:00pm 22.6 18.9 10.1 45 6.9 ENE 20 24 11 13 1017.9 1017.2 0.0
20/07:30pm 24.0 21.2 8.4 37 8.4 ESE 13 19 7 10 1017.1 1016.4 0.0
20/07:00pm 23.8 21.2 7.8 36 8.5 E 11 13 6 7 1016.8 1016.1 0.0
20/06:30pm 24.0 21.7 7.6 35 8.7 ENE 9 11 5 6 1016.4 1015.7 0.0
20/06:00pm 25.7 23.1 7.8 32 9.6 ENE 11 17 6 9 1015.9 1015.2 0.0
20/05:30pm 26.7 24.1 7.7 30 10.2 ENE 11 15 6 8 1015.5 1014.8 0.0
20/05:00pm 27.9 24.9 7.7 28 11.0 ENE 13 19 7 10 1015.0 1014.3 0.0
20/04:30pm 27.7 25.0 7.5 28 10.9 E 11 17 6 9 1014.7 1014.0 0.0
20/04:00pm 27.2 24.2 7.6 29 10.6 E 13 17 7 9 1014.5 1013.7 0.0
20/03:30pm 27.8 25.3 8.1 29 10.8 ENE 11 17 6 9 1014.4 1013.6 0.0
20/03:00pm 27.4 25.3 8.3 30 10.4 SSE 9 15 5 8 1014.4 1013.6 0.0
20/02:30pm 26.9 24.2 8.8 32 10.0 E 13 24 7 13 1014.8 1014.1 0.0
20/02:00pm 28.3 26.0 9.1 30 10.7 ENE 11 19 6 10 1015.3 1014.6 0.0
20/01:30pm 27.9 25.1 10.1 33 10.1 ENE 15 22 8 12 1015.8 1015.1 0.0
20/01:00pm 27.9 25.1 10.1 33 10.0 NE 15 22 8 12 1016.4 1015.7 0.0
20/12:30pm 26.2 23.0 10.0 36 9.1 E 17 28 9 15 1016.8 1016.1 0.0
20/12:00pm 25.6 22.8 11.4 41 8.1 E 17 28 9 15 1017.5 1016.8 0.0
20/11:30am 26.0 24.0 11.4 40 8.3 NE 13 26 7 14 1018.1 1017.4 0.0
20/11:00am 24.8 23.2 11.4 43 7.6 E 11 17 6 9 1018.5 1017.8 0.0
20/10:30am 23.8 21.9 11.8 47 6.8 N 13 24 7 13 1019.0 1018.3 0.0
20/10:00am 23.2 21.4 12.2 50 6.3 NNE 13 24 7 13 1019.4 1018.8 0.0
20/09:30am 22.9 21.0 13.1 54 5.7 NNE 15 20 8 11 1019.9 1019.2 0.0
20/09:00am 21.2 20.6 13.6 62 4.4 NNE 9 17 5 9 1020.2 1019.5 0.0
20/08:30am 21.6 20.9 14.3 63 4.3 ENE 11 17 6 9 1020.2 1019.5 0.0
20/08:00am 20.0 19.0 13.5 66 3.7 ESE 11 17 6 9 1020.0 1019.3 0.0
20/07:30am 19.6 18.3 13.8 69 3.3 SE 13 17 7 9 1019.4 1018.8 0.0
20/07:00am 17.7 17.8 14.4 81 1.9 SE 7 9 4 5 1019.3 1018.7 0.0
20/06:30am 15.4 14.4 12.3 82 1.7 SSW 9 11 5 6 1019.0 1018.3 0.0
20/06:00am 15.1 14.5 12.4 84 1.5 S 7 9 4 5 1018.5 1017.8 0.0
20/05:30am 15.3 14.8 12.6 84 1.5 ESE 7 11 4 6 1018.1 1017.4 0.0
20/05:00am 15.0 14.1 12.7 86 1.3 ESE 9 11 5 6 1017.4 1016.7 0.0
20/04:30am 15.1 14.0 13.0 87 1.2 ESE 11 13 6 7 1017.2 1016.5 0.0
20/04:00am 15.4 14.5 12.5 83 1.6 SE 9 13 5 7 1017.0 1016.3 0.0
20/03:30am 15.9 14.8 13.2 84 1.5 SE 11 13 6 7 1017.2 1016.5 0.0
20/03:00am 15.0 14.1 12.5 85 1.4 SE 9 13 5 7 1017.3 1016.6 0.0
20/02:30am 15.0 13.3 12.5 85 1.4 SSE 13 15 7 8 1017.6 1016.9 0.0
20/02:00am 14.7 14.9 12.0 84 1.5 SSW 2 13 1 7 1018.0 1017.3 0.0
20/01:30am 14.9 13.1 12.2 84 1.5 NE 13 15 7 8 1017.3 1016.6 0.0
20/01:00am 14.8 12.9 11.8 82 1.6 NE 13 15 7 8 1017.4 1016.7 0.0
20/12:30am 14.9 13.2 11.1 78 2.0 NE 11 13 6 7 1017.4 1016.7 0.0
20/12:00am 15.7 13.8 11.7 77 2.2 ENE 13 15 7 8 1017.9 1017.2 0.0
 
Date/Time
EST
Temp
°C
App
Temp
°C
Dew
Point
Rel
Hum
%
Delta-T
°C
Wind Press
QNH
hPa
Press
MSL
hPa
Rain
since 9 am
mm
Dir
 
Spd
km/h
Gust
km/h
Spd
kts
Gust
kts
19/11:30pm 16.2 14.4 12.0 76 2.3 ENE 13 15 7 8 1018.1 1017.4 0.0
19/11:00pm 16.5 14.5 11.6 73 2.7 NE 13 15 7 8 1018.3 1017.6 0.0
19/10:30pm 16.2 13.9 10.3 68 3.1 NE 13 15 7 8 1018.3 1017.6 0.0
19/10:00pm 16.1 13.3 7.1 55 4.5 NE 11 13 6 7 1018.3 1017.6 0.0
19/09:30pm 18.6 14.9 8.0 50 5.5 NE 17 20 9 11 1018.0 1017.3 0.0
19/09:00pm 20.0 15.4 6.4 41 6.9 NE 20 28 11 15 1017.6 1016.9 0.0
19/08:30pm 20.0 15.5 1.9 30 8.4 E 15 24 8 13 1017.0 1016.3 0.0
19/08:00pm 22.8 18.6 1.8 25 9.9 ESE 13 15 7 8 1016.7 1016.0 0.0
19/07:30pm 22.4 18.6 2.0 26 9.6 ESE 11 13 6 7 1016.5 1015.8 0.0
19/07:00pm 22.5 19.0 1.5 25 9.8 SE 9 11 5 6 1016.4 1015.7 0.0
19/06:30pm 24.1 20.5 0.4 21 11.0 S 9 9 5 5 1016.1 1015.4 0.0
19/06:00pm 26.2 23.2 0.8 19 12.1 S 6 9 3 5 1015.8 1015.1 0.0
19/05:30pm 27.5 24.4 0.3 17 12.9 SSW 6 7 3 4 1015.6 1014.9 0.0
19/05:00pm 28.5 24.5 0.3 16 13.5 W 11 19 6 10 1015.5 1014.8 0.0
19/04:30pm 29.0 24.7 0.7 16 13.7 WNW 13 19 7 10 1015.2 1014.5 0.0
19/04:00pm 28.8 24.4 0.5 16 13.6 W 13 26 7 14 1015.1 1014.4 0.0
19/03:30pm 28.7 23.8 -0.5 15 13.8 SW 15 26 8 14 1015.0 1014.3 0.0
19/03:00pm 28.8 23.3 0.5 16 13.6 NW 19 28 10 15 1015.1 1014.4 0.0
19/02:30pm 29.2 24.1 0.8 16 13.8 W 17 32 9 17 1015.6 1014.9 0.0
19/02:00pm 28.9 24.7 1.4 17 13.5 WNW 13 20 7 11 1015.8 1015.1 0.0
19/01:30pm 28.4 25.2 3.3 20 12.7 ESE 9 15 5 8 1016.3 1015.6 0.0
19/01:00pm 27.3 24.3 1.7 19 12.5 NNE 7 17 4 9 1017.0 1016.3 0.0
19/12:30pm 27.6 23.9 2.6 20 12.4 ENE 11 26 6 14 1017.8 1017.1 0.0
19/12:00pm 26.7 22.5 1.9 20 12.0 NNE 13 24 7 13 1018.5 1017.8 0.0
19/11:30am 26.4 22.2 3.6 23 11.4 N 15 28 8 15 1018.9 1018.2 0.0
19/11:00am 26.0 22.3 4.5 25 10.9 N 13 19 7 10 1019.6 1018.9 0.0
19/10:30am 25.5 20.8 5.1 27 10.4 ENE 19 24 10 13 1020.3 1019.6 0.0
19/10:00am 24.1 20.4 6.4 32 9.2 NE 15 24 8 13 1020.5 1019.8 0.0
19/09:30am 23.1 19.3 6.0 33 8.8 NE 15 24 8 13 1021.0 1020.3 0.0
19/09:00am 22.4 19.2 7.0 37 8.0 NE 13 22 7 12 1021.2 1020.5 0.0
19/08:30am 21.3 18.2 7.2 40 7.3 ENE 13 20 7 11 1021.1 1020.4 0.0
19/08:00am 19.6 17.7 6.7 43 6.5 SE 6 9 3 5 1021.1 1020.4 0.0
19/07:30am 17.6 17.0 7.6 52 5.1 CALM 0 0 0 0 1020.9 1020.2 0.0
19/07:00am 14.0 12.2 7.8 66 3.1 S 7 9 4 5 1020.4 1019.7 0.0
19/06:30am 10.1 6.6 5.5 73 2.1 SSW 13 13 7 7 1020.1 1019.4 0.0
19/06:00am 9.0 5.7 4.8 75 1.9 SSW 11 13 6 7 1019.8 1019.1 0.0
19/05:30am 9.2 5.9 4.6 73 2.1 SSW 11 13 6 7 1019.4 1018.8 0.0
19/05:00am 9.6 7.0 4.4 70 2.3 SSW 7 13 4 7 1019.1 1018.4 0.0
19/04:30am 9.1 6.1 3.9 70 2.3 SW 9 9 5 5 1018.9 1018.2 0.0
19/04:00am 9.5 6.5 4.1 69 2.4 SSW 9 11 5 6 1018.6 1017.9 0.0
19/03:30am 9.9 7.4 3.6 65 2.8 WSW 6 7 3 4 1018.6 1017.9 0.0
19/03:00am 11.2 9.1 4.0 61 3.2 WNW 4 7 2 4 1018.5 1017.8 0.0
19/02:30am 12.8 10.3 4.5 57 3.8 NE 7 11 4 6 1018.6 1017.9 0.0
19/02:00am 13.0 10.0 4.2 55 4.0 NE 9 11 5 6 1018.6 1017.9 0.0
19/01:30am 12.2 9.4 2.9 53 4.1 SE 7 9 4 5 1018.5 1017.8 0.0
19/01:00am 12.6 10.9 1.9 48 4.6 CALM 0 4 0 2 1018.7 1018.0 0.0
19/12:30am 13.8 10.0 4.1 52 4.5 NE 13 17 7 9 1018.7 1018.0 0.0
19/12:00am 10.1 6.9 0.7 52 3.9 NE 7 15 4 8 1018.8 1018.1 0.0
 
Date/Time
EST
Temp
°C
App
Temp
°C
Dew
Point
Rel
Hum
%
Delta-T
°C
Wind Press
QNH
hPa
Press
MSL
hPa
Rain
since 9 am
mm
Dir
 
Spd
km/h
Gust
km/h
Spd
kts
Gust
kts
18/11:30pm 13.1 9.5 0.5 42 5.3 S 9 11 5 6 1018.7 1018.0 0.0
18/11:00pm 13.6 11.3 0.6 41 5.5 SSE 2 7 1 4 1018.8 1018.1 0.0
18/10:30pm 14.1 10.8 0.0 38 6.0 S 7 7 4 4 1018.9 1018.2 0.0
18/10:00pm 16.1 11.7 0.3 34 6.8 SSE 13 13 7 7 1018.9 1018.2 0.0
18/09:30pm 17.1 12.9 -0.6 30 7.6 SSE 11 13 6 7 1018.9 1018.2 0.0
18/09:00pm 16.2 11.9 -1.4 30 7.4 S 11 13 6 7 1018.9 1018.2 0.0
18/08:30pm 19.6 15.3 -1.5 24 9.1 SSE 11 13 6 7 1019.0 1018.3 0.0
18/08:00pm 19.9 14.8 -1.8 23 9.3 SSE 15 19 8 10 1018.7 1018.0 0.0
18/07:30pm 20.9 16.6 -1.6 22 9.8 ESE 11 15 6 8 1018.2 1017.5 0.0
18/07:00pm 18.9 14.8 -2.7 23 9.0 SE 9 13 5 7 1017.7 1017.0 0.0
18/06:30pm 23.0 18.2 -2.6 18 11.1 S 13 15 7 8 1017.3 1016.6 0.0
18/06:00pm 24.6 20.0 -3.7 15 12.2 S 11 13 6 7 1016.9 1016.2 0.0
18/05:30pm 26.1 21.6 -3.5 14 13.0 SSW 11 15 6 8 1016.6 1015.9 0.0
18/05:00pm 26.9 22.7 -3.8 13 13.5 SSE 9 17 5 9 1016.4 1015.7 0.0
18/04:30pm 27.2 22.3 -3.6 13 13.6 S 13 19 7 10 1016.2 1015.5 0.0
18/04:00pm 27.0 22.9 -2.7 14 13.3 E 9 17 5 9 1015.9 1015.2 0.0
18/03:30pm 27.5 22.4 -2.3 14 13.5 SE 15 22 8 12 1015.9 1015.2 0.0
18/03:00pm 27.0 21.8 -2.7 14 13.3 E 15 24 8 13 1016.2 1015.5 0.0
18/02:30pm 27.1 22.0 -1.7 15 13.2 SE 15 22 8 12 1016.4 1015.7 0.0
18/02:00pm 26.8 21.4 -1.1 16 12.9 SSE 17 26 9 14 1016.6 1015.9 0.0
18/01:30pm 26.3 21.5 -2.4 15 12.9 E 13 19 7 10 1017.0 1016.3 0.0
18/01:00pm 26.7 20.9 -1.2 16 12.8 SW 19 22 10 12 1017.7 1017.0 0.0
18/12:30pm 25.8 21.6 -1.1 17 12.3 ESE 11 24 6 13 1018.2 1017.5 0.0
18/12:00pm 25.8 20.5 -0.3 18 12.1 S 17 26 9 14 1018.8 1018.1 0.0
18/11:30am 25.0 19.8 -0.2 19 11.7 S 17 30 9 16 1019.3 1018.7 0.0
18/11:00am 25.6 19.7 -0.5 18 12.0 S 20 32 11 17 1019.9 1019.2 0.0
18/10:30am 25.5 19.9 0.2 19 11.8 SE 19 35 10 19 1020.4 1019.7 0.0
18/10:00am 24.6 18.1 0.2 20 11.3 SSE 24 33 13 18 1020.5 1019.8 0.0
18/09:30am 23.7 17.2 0.1 21 10.9 SSE 24 39 13 21 1020.8 1020.1 0.0
18/09:00am 23.9 17.0 0.3 21 10.9 SSE 26 39 14 21 1020.8 1020.1 0.0
18/08:30am 23.0 15.8 0.8 23 10.3 SSE 28 35 15 19 1020.8 1020.1 0.0
18/08:00am 22.0 15.2 1.1 25 9.7 SSE 26 35 14 19 1020.4 1019.7 0.0
18/07:30am 20.5 14.6 1.4 28 8.8 S 22 30 12 16 1020.2 1019.5 0.0
18/07:00am 19.0 13.0 1.1 30 8.1 S 22 28 12 15 1019.8 1019.1 0.0
18/06:30am 18.0 12.0 1.1 32 7.6 S 22 30 12 16 1019.3 1018.7 0.0
18/06:00am 17.5 11.1 1.1 33 7.3 S 24 32 13 17 1018.8 1018.1 0.0
18/05:30am 17.9 11.5 1.0 32 7.6 S 24 32 13 17 1018.4 1017.7 0.0
18/05:00am 18.4 12.0 1.0 31 7.8 S 24 32 13 17 1018.0 1017.3 0.0
18/04:30am 18.4 12.4 1.0 31 7.8 S 22 30 12 16 1017.7 1017.0 0.0
18/04:00am 17.7 12.7 1.2 33 7.4 S 17 22 9 12 1017.6 1016.9 0.0
18/03:30am 17.9 12.8 1.0 32 7.6 S 17 24 9 13 1017.3 1016.6 0.0
18/03:00am 18.4 12.8 1.0 31 7.8 S 20 26 11 14 1017.1 1016.4 0.0
18/02:30am 19.4 14.3 0.9 29 8.4 S 17 24 9 13 1016.8 1016.1 0.0
18/02:00am 18.6 12.1 0.2 29 8.1 S 24 28 13 15 1016.5 1015.8 0.0
18/01:30am 19.3 13.3 -1.2 25 8.9 S 20 24 11 13 1016.4 1015.7 0.0
18/01:00am 19.0 13.7 -0.9 26 8.6 S 17 20 9 11 1016.4 1015.7 0.0
18/12:30am 17.8 12.3 0.5 31 7.7 S 19 22 10 12 1016.4 1015.7 0.0
18/12:00am 19.0 14.6 0.1 28 8.4 S 13 17 7 9 1016.5 1015.8 0.0
 
Date/Time
EST
Temp
°C
App
Temp
°C
Dew
Point
Rel
Hum
%
Delta-T
°C
Wind Press
QNH
hPa
Press
MSL
hPa
Rain
since 9 am
mm
Dir
 
Spd
km/h
Gust
km/h
Spd
kts
Gust
kts
17/11:30pm 18.6 14.6 0.2 29 8.1 SE 11 17 6 9 1016.4 1015.7 0.0
17/11:00pm 16.6 14.7 0.3 33 7.1 CALM 0 6 0 3 1016.2 1015.5 0.0
17/10:30pm 16.1 13.1 1.8 38 6.4 NNW 7 11 4 6 1016.2 1015.5 0.0
17/10:00pm 16.6 13.2 1.9 37 6.6 SSE 9 13 5 7 1016.1 1015.4 0.0

Other Formats:

Comma delimited format used in spreadsheet applications
http://www.bom.gov.au/fwo/IDQ60801/IDQ60801.94398.axf

JavaScript Object Notation format (JSON) in row-major order
http://www.bom.gov.au/fwo/IDQ60801/IDQ60801.94398.json